sensor_id;sensor_type;location;lat;lon;timestamp;pressure;altitude;pressure_sealevel;temperature;humidity
46430;BME280;32131;53.454;-6.180;2023-02-12T00:01:24;103545.25;;;8.52;67.96
46430;BME280;32131;53.454;-6.180;2023-02-12T00:03:54;103545.25;;;8.52;68.09
46430;BME280;32131;53.454;-6.180;2023-02-12T00:06:22;103541.66;;;8.49;67.93
46430;BME280;32131;53.454;-6.180;2023-02-12T00:08:50;103548.59;;;8.51;68.12
46430;BME280;32131;53.454;-6.180;2023-02-12T00:11:20;103545.13;;;8.50;68.17
46430;BME280;32131;53.454;-6.180;2023-02-12T00:13:48;103545.03;;;8.48;68.17
46430;BME280;32131;53.454;-6.180;2023-02-12T00:16:20;103538.97;;;8.48;68.22
46430;BME280;32131;53.454;-6.180;2023-02-12T00:18:50;103541.31;;;8.45;68.34
46430;BME280;32131;53.454;-6.180;2023-02-12T00:21:18;103540.41;;;8.44;68.36
46430;BME280;32131;53.454;-6.180;2023-02-12T00:23:47;103538.63;;;8.43;68.37
46430;BME280;32131;53.454;-6.180;2023-02-12T00:26:17;103535.06;;;8.41;68.44
46430;BME280;32131;53.454;-6.180;2023-02-12T00:28:45;103541.88;;;8.41;68.63
46430;BME280;32131;53.454;-6.180;2023-02-12T00:31:15;103546.13;;;8.40;68.65
46430;BME280;32131;53.454;-6.180;2023-02-12T00:33:45;103537.41;;;8.38;68.72
46430;BME280;32131;53.454;-6.180;2023-02-12T00:36:16;103529.69;;;8.38;68.74
46430;BME280;32131;53.454;-6.180;2023-02-12T00:38:52;103530.47;;;8.37;68.85
46430;BME280;32131;53.454;-6.180;2023-02-12T00:41:21;103525.31;;;8.37;68.85
46430;BME280;32131;53.454;-6.180;2023-02-12T00:43:49;103535.63;;;8.37;68.92
46430;BME280;32131;53.454;-6.180;2023-02-12T00:46:17;103530.47;;;8.37;68.98
46430;BME280;32131;53.454;-6.180;2023-02-12T00:48:49;103527.09;;;8.38;68.92
46430;BME280;32131;53.454;-6.180;2023-02-12T00:51:17;103521.06;;;8.38;68.91
46430;BME280;32131;53.454;-6.180;2023-02-12T00:53:45;103522.88;;;8.39;69.10
46430;BME280;32131;53.454;-6.180;2023-02-12T00:56:13;103538.31;;;8.39;69.03
46430;BME280;32131;53.454;-6.180;2023-02-12T00:58:41;103527.09;;;8.38;69.03
46430;BME280;32131;53.454;-6.180;2023-02-12T01:01:08;103519.38;;;8.38;69.16
46430;BME280;32131;53.454;-6.180;2023-02-12T01:03:40;103515.16;;;8.39;69.09
46430;BME280;32131;53.454;-6.180;2023-02-12T01:06:09;103518.59;;;8.39;69.06
46430;BME280;32131;53.454;-6.180;2023-02-12T01:08:37;103518.59;;;8.39;69.02
46430;BME280;32131;53.454;-6.180;2023-02-12T01:11:05;103518.59;;;8.39;69.21
46430;BME280;32131;53.454;-6.180;2023-02-12T01:13:34;103525.53;;;8.40;69.09
46430;BME280;32131;53.454;-6.180;2023-02-12T01:16:03;103518.59;;;8.39;69.28
46430;BME280;32131;53.454;-6.180;2023-02-12T01:18:34;103511.66;;;8.38;69.22
46430;BME280;32131;53.454;-6.180;2023-02-12T01:21:07;103509.09;;;8.38;69.39
46430;BME280;32131;53.454;-6.180;2023-02-12T01:23:41;103507.28;;;8.37;69.27
46430;BME280;32131;53.454;-6.180;2023-02-12T01:26:09;103509.88;;;8.37;69.33
46430;BME280;32131;53.454;-6.180;2023-02-12T01:28:38;103503.75;;;8.35;69.31
46430;BME280;32131;53.454;-6.180;2023-02-12T01:31:07;103508.06;;;8.36;69.28
46430;BME280;32131;53.454;-6.180;2023-02-12T01:33:35;103503.84;;;8.37;69.49
46430;BME280;32131;53.454;-6.180;2023-02-12T01:36:03;103502.16;;;8.37;69.38
46430;BME280;32131;53.454;-6.180;2023-02-12T01:38:34;103500.34;;;8.36;69.28
46430;BME280;32131;53.454;-6.180;2023-02-12T01:41:07;103507.19;;;8.36;69.37
46430;BME280;32131;53.454;-6.180;2023-02-12T01:43:35;103497.69;;;8.34;69.45
46430;BME280;32131;53.454;-6.180;2023-02-12T01:46:04;103493.31;;;8.33;69.46
46430;BME280;32131;53.454;-6.180;2023-02-12T01:48:34;103489.72;;;8.31;69.61
46430;BME280;32131;53.454;-6.180;2023-02-12T01:51:06;103489.72;;;8.31;69.54
46430;BME280;32131;53.454;-6.180;2023-02-12T01:53:36;103482.94;;;8.32;69.71
46430;BME280;32131;53.454;-6.180;2023-02-12T01:56:06;103493.13;;;8.30;69.73
46430;BME280;32131;53.454;-6.180;2023-02-12T01:58:35;103485.41;;;8.30;69.72
46430;BME280;32131;53.454;-6.180;2023-02-12T02:01:05;103482.69;;;8.29;69.81
46430;BME280;32131;53.454;-6.180;2023-02-12T02:03:36;103481.81;;;8.28;69.74
46430;BME280;32131;53.454;-6.180;2023-02-12T02:06:06;103483.50;;;8.28;69.84
46430;BME280;32131;53.454;-6.180;2023-02-12T02:08:36;103488.63;;;8.28;69.90
46430;BME280;32131;53.454;-6.180;2023-02-12T02:11:08;103481.81;;;8.28;69.81
46430;BME280;32131;53.454;-6.180;2023-02-12T02:13:50;103478.34;;;8.28;69.89
46430;BME280;32131;53.454;-6.180;2023-02-12T02:16:36;103480.13;;;8.29;69.97
46430;BME280;32131;53.454;-6.180;2023-02-12T02:19:08;103474.88;;;8.27;69.82
46430;BME280;32131;53.454;-6.180;2023-02-12T02:21:48;103473.00;;;8.25;70.08
46430;BME280;32131;53.454;-6.180;2023-02-12T02:24:25;103474.56;;;8.23;70.11
46430;BME280;32131;53.454;-6.180;2023-02-12T02:29:53;103463.16;;;8.19;70.13
46430;BME280;32131;53.454;-6.180;2023-02-12T02:32:27;103467.41;;;8.18;70.20
46430;BME280;32131;53.454;-6.180;2023-02-12T02:34:57;103469.97;;;8.18;70.32
46430;BME280;32131;53.454;-6.180;2023-02-12T02:37:31;103464.75;;;8.17;70.39
46430;BME280;32131;53.454;-6.180;2023-02-12T02:40:01;103469.00;;;8.16;70.34
46430;BME280;32131;53.454;-6.180;2023-02-12T02:42:36;103463.63;;;8.13;70.44
46430;BME280;32131;53.454;-6.180;2023-02-12T02:45:07;103462.75;;;8.13;70.51
46430;BME280;32131;53.454;-6.180;2023-02-12T02:47:40;103472.13;;;8.12;70.67
46430;BME280;32131;53.454;-6.180;2023-02-12T02:50:11;103475.50;;;8.11;70.65
46430;BME280;32131;53.454;-6.180;2023-02-12T02:52:45;103472.81;;;8.10;70.92
46430;BME280;32131;53.454;-6.180;2023-02-12T02:55:16;103468.38;;;8.07;71.07
46430;BME280;32131;53.454;-6.180;2023-02-12T02:57:46;103470.03;;;8.07;71.28
46430;BME280;32131;53.454;-6.180;2023-02-12T03:00:16;103475.06;;;8.05;71.65
46430;BME280;32131;53.454;-6.180;2023-02-12T03:02:47;103473.28;;;8.04;71.72
46430;BME280;32131;53.454;-6.180;2023-02-12T03:05:18;103470.72;;;8.04;72.00
46430;BME280;32131;53.454;-6.180;2023-02-12T03:07:47;103470.63;;;8.02;72.00
46430;BME280;32131;53.454;-6.180;2023-02-12T03:10:17;103468.03;;;8.02;72.05
46430;BME280;32131;53.454;-6.180;2023-02-12T03:12:50;103463.69;;;8.01;72.13
46430;BME280;32131;53.454;-6.180;2023-02-12T03:15:23;103461.09;;;8.01;72.19
46430;BME280;32131;53.454;-6.180;2023-02-12T03:17:55;103458.53;;;8.01;72.33
46430;BME280;32131;53.454;-6.180;2023-02-12T03:20:26;103457.66;;;8.01;72.28
46430;BME280;32131;53.454;-6.180;2023-02-12T03:22:57;103464.56;;;8.02;72.56
46430;BME280;32131;53.454;-6.180;2023-02-12T03:25:27;103462.81;;;8.01;72.42
46430;BME280;32131;53.454;-6.180;2023-02-12T03:27:58;103459.41;;;8.02;72.50
46430;BME280;32131;53.454;-6.180;2023-02-12T03:30:37;103453.38;;;8.01;72.46
46430;BME280;32131;53.454;-6.180;2023-02-12T03:33:14;103455.88;;;8.00;72.51
46430;BME280;32131;53.454;-6.180;2023-02-12T03:35:47;103445.66;;;8.01;72.54
46430;BME280;32131;53.454;-6.180;2023-02-12T03:38:25;103451.59;;;8.00;72.48
46430;BME280;32131;53.454;-6.180;2023-02-12T03:40:58;103442.22;;;8.01;72.58
46430;BME280;32131;53.454;-6.180;2023-02-12T03:43:32;103442.22;;;8.01;72.47
46430;BME280;32131;53.454;-6.180;2023-02-12T03:46:07;103435.28;;;8.00;72.62
46430;BME280;32131;53.454;-6.180;2023-02-12T03:48:41;103437.94;;;8.01;72.57
46430;BME280;32131;53.454;-6.180;2023-02-12T03:51:13;103438.72;;;8.00;72.69
46430;BME280;32131;53.454;-6.180;2023-02-12T03:53:45;103436.16;;;8.00;72.78
46430;BME280;32131;53.454;-6.180;2023-02-12T03:56:14;103426.78;;;8.01;72.67
46430;BME280;32131;53.454;-6.180;2023-02-12T03:58:45;103431.00;;;8.00;72.66
46430;BME280;32131;53.454;-6.180;2023-02-12T04:01:13;103428.44;;;8.00;72.82
46430;BME280;32131;53.454;-6.180;2023-02-12T04:03:44;103425.00;;;8.00;72.84
46430;BME280;32131;53.454;-6.180;2023-02-12T04:06:19;103429.34;;;8.01;72.92
46430;BME280;32131;53.454;-6.180;2023-02-12T04:08:47;103430.31;;;8.03;73.04
46430;BME280;32131;53.454;-6.180;2023-02-12T04:11:19;103439.75;;;8.02;73.18
46430;BME280;32131;53.454;-6.180;2023-02-12T04:13:52;103435.47;;;8.03;73.27
46430;BME280;32131;53.454;-6.180;2023-02-12T04:16:31;103432.91;;;8.03;73.17
46430;BME280;32131;53.454;-6.180;2023-02-12T04:19:05;103436.38;;;8.03;73.26
46430;BME280;32131;53.454;-6.180;2023-02-12T04:21:38;103432.91;;;8.03;73.42
46430;BME280;32131;53.454;-6.180;2023-02-12T04:24:13;103430.31;;;8.03;73.77
46430;BME280;32131;53.454;-6.180;2023-02-12T04:26:47;103433.81;;;8.03;73.71
46430;BME280;32131;53.454;-6.180;2023-02-12T04:29:18;103427.75;;;8.03;73.91
46430;BME280;32131;53.454;-6.180;2023-02-12T04:31:51;103434.59;;;8.02;74.05
46430;BME280;32131;53.454;-6.180;2023-02-12T04:35:07;103440.63;;;8.03;74.03
46430;BME280;32131;53.454;-6.180;2023-02-12T04:37:47;103438.81;;;8.02;74.30
46430;BME280;32131;53.454;-6.180;2023-02-12T04:40:18;103436.25;;;8.02;74.13
46430;BME280;32131;53.454;-6.180;2023-02-12T04:42:53;103437.94;;;8.01;74.38
46430;BME280;32131;53.454;-6.180;2023-02-12T04:45:26;103437.16;;;8.02;74.51
46430;BME280;32131;53.454;-6.180;2023-02-12T04:47:54;103444.78;;;8.01;74.47
46430;BME280;32131;53.454;-6.180;2023-02-12T04:50:24;103441.41;;;8.02;74.58
46430;BME280;32131;53.454;-6.180;2023-02-12T04:52:53;103447.38;;;8.01;74.63
46430;BME280;32131;53.454;-6.180;2023-02-12T04:55:22;103447.38;;;8.01;74.82
46430;BME280;32131;53.454;-6.180;2023-02-12T04:57:49;103448.00;;;7.98;74.88
46430;BME280;32131;53.454;-6.180;2023-02-12T05:00:17;103454.06;;;7.99;75.06
46430;BME280;32131;53.454;-6.180;2023-02-12T05:02:45;103453.16;;;7.98;75.13
46430;BME280;32131;53.454;-6.180;2023-02-12T05:05:13;103456.66;;;7.99;75.14
46430;BME280;32131;53.454;-6.180;2023-02-12T05:07:44;103453.16;;;7.98;75.28
46430;BME280;32131;53.454;-6.180;2023-02-12T05:10:12;103457.44;;;7.98;75.36
46430;BME280;32131;53.454;-6.180;2023-02-12T05:12:41;103456.41;;;7.96;75.46
46430;BME280;32131;53.454;-6.180;2023-02-12T05:15:09;103459.00;;;7.96;75.55
46430;BME280;32131;53.454;-6.180;2023-02-12T05:17:37;103462.34;;;7.95;75.69
46430;BME280;32131;53.454;-6.180;2023-02-12T05:20:06;103461.47;;;7.94;75.78
46430;BME280;32131;53.454;-6.180;2023-02-12T05:22:35;103461.47;;;7.94;75.85
46430;BME280;32131;53.454;-6.180;2023-02-12T05:25:05;103453.66;;;7.93;75.95
46430;BME280;32131;53.454;-6.180;2023-02-12T05:27:32;103461.25;;;7.91;75.92
46430;BME280;32131;53.454;-6.180;2023-02-12T05:30:00;103463.94;;;7.93;76.32
46430;BME280;32131;53.454;-6.180;2023-02-12T05:32:29;103461.94;;;7.89;76.62
46430;BME280;32131;53.454;-6.180;2023-02-12T05:34:57;103463.63;;;7.88;76.61
46430;BME280;32131;53.454;-6.180;2023-02-12T05:37:25;103457.56;;;7.87;76.69
46430;BME280;32131;53.454;-6.180;2023-02-12T05:39:53;103459.25;;;7.87;76.80
46430;BME280;32131;53.454;-6.180;2023-02-12T05:42:22;103454.81;;;7.84;77.12
46430;BME280;32131;53.454;-6.180;2023-02-12T05:44:50;103459.94;;;7.84;77.24
46430;BME280;32131;53.454;-6.180;2023-02-12T05:47:19;103451.31;;;7.84;77.27
46430;BME280;32131;53.454;-6.180;2023-02-12T05:49:46;103451.22;;;7.82;77.62
46430;BME280;32131;53.454;-6.180;2023-02-12T05:52:14;103450.44;;;7.83;77.53
46430;BME280;32131;53.454;-6.180;2023-02-12T05:54:42;103453.78;;;7.82;77.62
46430;BME280;32131;53.454;-6.180;2023-02-12T05:57:10;103456.38;;;7.82;77.82
46430;BME280;32131;53.454;-6.180;2023-02-12T05:59:39;103456.38;;;7.82;77.89
46430;BME280;32131;53.454;-6.180;2023-02-12T06:02:07;103452.00;;;7.81;77.95
46430;BME280;32131;53.454;-6.180;2023-02-12T06:04:38;103441.72;;;7.81;77.99
46430;BME280;32131;53.454;-6.180;2023-02-12T06:07:05;103444.28;;;7.81;78.28
46430;BME280;32131;53.454;-6.180;2023-02-12T06:09:33;103452.78;;;7.80;78.39
46430;BME280;32131;53.454;-6.180;2023-02-12T06:12:02;103444.28;;;7.81;78.53
46430;BME280;32131;53.454;-6.180;2023-02-12T06:14:30;103449.44;;;7.81;78.77
46430;BME280;32131;53.454;-6.180;2023-02-12T06:17:01;103445.84;;;7.79;79.22
46430;BME280;32131;53.454;-6.180;2023-02-12T06:19:29;103444.97;;;7.79;79.30
46430;BME280;32131;53.454;-6.180;2023-02-12T06:21:57;103444.06;;;7.78;79.23
46430;BME280;32131;53.454;-6.180;2023-02-12T06:24:25;103442.25;;;7.77;79.42
46430;BME280;32131;53.454;-6.180;2023-02-12T06:26:53;103444.06;;;7.78;79.63
46430;BME280;32131;53.454;-6.180;2023-02-12T06:29:21;103444.06;;;7.78;79.54
46430;BME280;32131;53.454;-6.180;2023-02-12T06:31:49;103436.34;;;7.78;79.57
46430;BME280;32131;53.454;-6.180;2023-02-12T06:34:19;103438.03;;;7.78;79.66
46430;BME280;32131;53.454;-6.180;2023-02-12T06:36:47;103438.03;;;7.78;79.71
46430;BME280;32131;53.454;-6.180;2023-02-12T06:39:15;103442.25;;;7.77;80.06
46430;BME280;32131;53.454;-6.180;2023-02-12T06:41:43;103449.19;;;7.78;79.96
46430;BME280;32131;53.454;-6.180;2023-02-12T06:44:12;103444.84;;;7.77;79.95
46430;BME280;32131;53.454;-6.180;2023-02-12T06:46:40;103440.69;;;7.79;79.97
46430;BME280;32131;53.454;-6.180;2023-02-12T06:49:10;103434.69;;;7.79;80.10
46430;BME280;32131;53.454;-6.180;2023-02-12T06:51:43;103435.47;;;7.78;79.83
46430;BME280;32131;53.454;-6.180;2023-02-12T06:54:12;103430.31;;;7.78;80.05
46430;BME280;32131;53.454;-6.180;2023-02-12T06:56:40;103418.25;;;7.77;80.22
46430;BME280;32131;53.454;-6.180;2023-02-12T06:59:09;103421.59;;;7.76;80.50
46430;BME280;32131;53.454;-6.180;2023-02-12T07:01:38;103421.50;;;7.74;80.57
46430;BME280;32131;53.454;-6.180;2023-02-12T07:04:06;103421.50;;;7.74;80.85
46430;BME280;32131;53.454;-6.180;2023-02-12T07:06:36;103433.44;;;7.74;81.01
46430;BME280;32131;53.454;-6.180;2023-02-12T07:09:05;103429.09;;;7.72;81.00
46430;BME280;32131;53.454;-6.180;2023-02-12T07:11:34;103425.72;;;7.74;81.03
46430;BME280;32131;53.454;-6.180;2023-02-12T07:14:04;103423.94;;;7.72;81.03
46430;BME280;32131;53.454;-6.180;2023-02-12T07:16:33;103427.31;;;7.71;81.45
46430;BME280;32131;53.454;-6.180;2023-02-12T07:19:00;103430.69;;;7.70;81.53
46430;BME280;32131;53.454;-6.180;2023-02-12T07:21:29;103431.34;;;7.68;81.67
46430;BME280;32131;53.454;-6.180;2023-02-12T07:23:58;103427.88;;;7.67;82.15
46430;BME280;32131;53.454;-6.180;2023-02-12T07:26:27;103427.00;;;7.67;82.39
46430;BME280;32131;53.454;-6.180;2023-02-12T07:28:55;103433.81;;;7.66;82.34
46430;BME280;32131;53.454;-6.180;2023-02-12T07:31:25;103439.84;;;7.67;82.34
46430;BME280;32131;53.454;-6.180;2023-02-12T07:33:54;103444.88;;;7.65;82.48
46430;BME280;32131;53.454;-6.180;2023-02-12T08:12:17;103472.03;;;7.74;85.34
46430;BME280;32131;53.454;-6.180;2023-02-12T08:14:45;103481.75;;;7.78;85.39
46430;BME280;32131;53.454;-6.180;2023-02-12T08:17:13;103475.16;;;7.81;85.36
46430;BME280;32131;53.454;-6.180;2023-02-12T08:19:41;103483.88;;;7.83;85.42
46430;BME280;32131;53.454;-6.180;2023-02-12T08:22:09;103470.34;;;7.86;85.36
46430;BME280;32131;53.454;-6.180;2023-02-12T08:24:37;103480.81;;;7.89;85.34
46430;BME280;32131;53.454;-6.180;2023-02-12T08:27:06;103480.94;;;7.91;85.16
46430;BME280;32131;53.454;-6.180;2023-02-12T08:29:35;103477.78;;;7.95;85.01
46430;BME280;32131;53.454;-6.180;2023-02-12T08:32:03;103487.44;;;7.97;84.89
46430;BME280;32131;53.454;-6.180;2023-02-12T08:41:08;103481.34;;;8.09;84.38
46430;BME280;32131;53.454;-6.180;2023-02-12T08:43:37;103477.50;;;8.15;84.02
46430;BME280;32131;53.454;-6.180;2023-02-12T08:46:09;103472.69;;;8.20;83.80
46430;BME280;32131;53.454;-6.180;2023-02-12T08:48:38;103468.84;;;8.27;83.67
46430;BME280;32131;53.454;-6.180;2023-02-12T08:51:09;103473.63;;;8.34;83.29
46430;BME280;32131;53.454;-6.180;2023-02-12T08:53:38;103476.53;;;8.39;82.94
46430;BME280;32131;53.454;-6.180;2023-02-12T08:56:08;103474.03;;;8.40;82.50
46430;BME280;32131;53.454;-6.180;2023-02-12T08:58:36;103471.56;;;8.42;82.53
46430;BME280;32131;53.454;-6.180;2023-02-12T09:01:05;103476.03;;;8.44;82.17
46430;BME280;32131;53.454;-6.180;2023-02-12T09:03:39;103476.03;;;8.44;82.02
46430;BME280;32131;53.454;-6.180;2023-02-12T09:06:08;103476.28;;;8.47;81.84
46430;BME280;32131;53.454;-6.180;2023-02-12T09:08:36;103473.13;;;8.52;81.60
46430;BME280;32131;53.454;-6.180;2023-02-12T09:11:04;103478.47;;;8.55;81.42
46430;BME280;32131;53.454;-6.180;2023-02-12T09:13:32;103471.97;;;8.60;81.07
46430;BME280;32131;53.454;-6.180;2023-02-12T09:16:02;103476.44;;;8.62;80.88
46430;BME280;32131;53.454;-6.180;2023-02-12T09:18:31;103468.09;;;8.67;80.58
46430;BME280;32131;53.454;-6.180;2023-02-12T09:21:03;103465.75;;;8.70;80.43
46430;BME280;32131;53.454;-6.180;2023-02-12T09:23:31;103463.38;;;8.73;80.07
46430;BME280;32131;53.454;-6.180;2023-02-12T09:26:03;103467.06;;;8.76;80.04
46430;BME280;32131;53.454;-6.180;2023-02-12T09:28:31;103468.25;;;8.81;79.82
46430;BME280;32131;53.454;-6.180;2023-02-12T09:31:03;103467.06;;;8.90;79.58
46430;BME280;32131;53.454;-6.180;2023-02-12T09:33:41;103458.34;;;9.01;79.13
46430;BME280;32131;53.454;-6.180;2023-02-12T09:36:21;103457.25;;;9.11;78.92
46430;BME280;32131;53.454;-6.180;2023-02-12T09:38:49;103453.97;;;9.13;78.18
46430;BME280;32131;53.454;-6.180;2023-02-12T09:57:27;103433.44;;;9.84;75.61
46430;BME280;32131;53.454;-6.180;2023-02-12T10:00:00;103438.56;;;9.97;75.17
46430;BME280;32131;53.454;-6.180;2023-02-12T10:02:33;103434.75;;;10.05;74.15
46430;BME280;32131;53.454;-6.180;2023-02-12T10:05:03;103435.53;;;10.04;72.36
46430;BME280;32131;53.454;-6.180;2023-02-12T10:07:36;103437.53;;;10.09;72.32
46430;BME280;32131;53.454;-6.180;2023-02-12T10:10:14;103435.38;;;10.16;72.10
46430;BME280;32131;53.454;-6.180;2023-02-12T10:12:56;103427.25;;;10.23;70.93
46430;BME280;32131;53.454;-6.180;2023-02-12T10:15:31;103432.28;;;10.22;69.89
46430;BME280;32131;53.454;-6.180;2023-02-12T10:18:07;103432.28;;;10.22;69.69
46430;BME280;32131;53.454;-6.180;2023-02-12T10:26:10;103433.69;;;10.45;67.79
46430;BME280;32131;53.454;-6.180;2023-02-12T10:28:45;103431.47;;;10.51;66.79
46430;BME280;32131;53.454;-6.180;2023-02-12T10:31:24;103424.91;;;10.57;66.47
46430;BME280;32131;53.454;-6.180;2023-02-12T10:33:59;103431.94;;;10.59;65.49
46430;BME280;32131;53.454;-6.180;2023-02-12T10:37:00;103428.28;;;10.56;64.70
46430;BME280;32131;53.454;-6.180;2023-02-12T10:39:41;103429.78;;;10.52;64.53
46430;BME280;32131;53.454;-6.180;2023-02-12T10:42:18;103418.13;;;10.44;64.75
46430;BME280;32131;53.454;-6.180;2023-02-12T10:45:17;103423.59;;;10.35;64.71
46430;BME280;32131;53.454;-6.180;2023-02-12T10:59:55;103406.88;;;10.00;65.89
46430;BME280;32131;53.454;-6.180;2023-02-12T11:08:36;103420.00;;;10.18;66.11
46430;BME280;32131;53.454;-6.180;2023-02-12T11:14:36;103415.41;;;10.27;65.80
46430;BME280;32131;53.454;-6.180;2023-02-12T11:17:43;103413.38;;;10.36;65.67
46430;BME280;32131;53.454;-6.180;2023-02-12T11:20:21;103410.34;;;10.59;65.49
46430;BME280;32131;53.454;-6.180;2023-02-12T11:22:53;103406.84;;;10.88;64.73
46430;BME280;32131;53.454;-6.180;2023-02-12T11:25:24;103408.56;;;11.03;63.42
46430;BME280;32131;53.454;-6.180;2023-02-12T11:27:59;103403.25;;;11.16;62.65
46430;BME280;32131;53.454;-6.180;2023-02-12T11:30:28;103399.22;;;11.21;62.11
